sensor_id;sensor_type;location;lat;lon;timestamp;P1;durP1;ratioP1;P2;durP2;ratioP2
29044;SDS011;16133;49.486;12.176;2022-12-29T00:02:09;8.82;;;5.45;;
29044;SDS011;16133;49.486;12.176;2022-12-29T00:04:34;9.50;;;5.13;;
29044;SDS011;16133;49.486;12.176;2022-12-29T00:07:00;9.98;;;5.85;;
29044;SDS011;16133;49.486;12.176;2022-12-29T00:09:26;11.13;;;6.30;;
29044;SDS011;16133;49.486;12.176;2022-12-29T00:11:51;10.30;;;5.65;;
29044;SDS011;16133;49.486;12.176;2022-12-29T00:14:17;10.95;;;6.30;;
29044;SDS011;16133;49.486;12.176;2022-12-29T00:17:01;10.60;;;6.30;;
29044;SDS011;16133;49.486;12.176;2022-12-29T00:19:27;10.40;;;5.55;;
29044;SDS011;16133;49.486;12.176;2022-12-29T00:22:11;10.13;;;5.75;;
29044;SDS011;16133;49.486;12.176;2022-12-29T00:24:56;9.52;;;6.35;;
29044;SDS011;16133;49.486;12.176;2022-12-29T00:27:34;9.07;;;5.65;;
29044;SDS011;16133;49.486;12.176;2022-12-29T00:30:22;13.02;;;5.22;;
29044;SDS011;16133;49.486;12.176;2022-12-29T00:33:11;10.02;;;5.40;;
29044;SDS011;16133;49.486;12.176;2022-12-29T00:38:37;11.75;;;5.30;;
29044;SDS011;16133;49.486;12.176;2022-12-29T00:41:26;8.50;;;4.90;;
29044;SDS011;16133;49.486;12.176;2022-12-29T00:44:10;14.10;;;5.30;;
29044;SDS011;16133;49.486;12.176;2022-12-29T00:46:38;8.45;;;4.65;;
29044;SDS011;16133;49.486;12.176;2022-12-29T00:49:05;9.38;;;5.05;;
29044;SDS011;16133;49.486;12.176;2022-12-29T00:51:51;10.05;;;4.97;;
29044;SDS011;16133;49.486;12.176;2022-12-29T00:54:17;7.25;;;4.32;;
29044;SDS011;16133;49.486;12.176;2022-12-29T00:56:45;6.38;;;4.20;;
29044;SDS011;16133;49.486;12.176;2022-12-29T00:59:11;7.93;;;4.75;;
29044;SDS011;16133;49.486;12.176;2022-12-29T01:01:37;7.93;;;4.38;;
29044;SDS011;16133;49.486;12.176;2022-12-29T01:04:03;8.57;;;4.43;;
29044;SDS011;16133;49.486;12.176;2022-12-29T01:06:29;7.20;;;4.75;;
29044;SDS011;16133;49.486;12.176;2022-12-29T01:08:54;8.20;;;4.07;;
29044;SDS011;16133;49.486;12.176;2022-12-29T01:11:38;9.55;;;4.05;;
29044;SDS011;16133;49.486;12.176;2022-12-29T01:14:04;7.80;;;4.20;;
29044;SDS011;16133;49.486;12.176;2022-12-29T01:16:30;7.55;;;4.47;;
29044;SDS011;16133;49.486;12.176;2022-12-29T01:18:56;7.32;;;4.78;;
29044;SDS011;16133;49.486;12.176;2022-12-29T01:21:21;6.63;;;3.92;;
29044;SDS011;16133;49.486;12.176;2022-12-29T01:23:46;6.45;;;4.30;;
29044;SDS011;16133;49.486;12.176;2022-12-29T01:26:12;9.35;;;4.43;;
29044;SDS011;16133;49.486;12.176;2022-12-29T01:28:39;6.60;;;3.92;;
29044;SDS011;16133;49.486;12.176;2022-12-29T01:31:06;7.85;;;4.25;;
29044;SDS011;16133;49.486;12.176;2022-12-29T01:33:32;8.73;;;4.05;;
29044;SDS011;16133;49.486;12.176;2022-12-29T01:36:02;7.00;;;3.95;;
29044;SDS011;16133;49.486;12.176;2022-12-29T01:38:28;7.18;;;4.25;;
29044;SDS011;16133;49.486;12.176;2022-12-29T01:40:53;6.15;;;3.85;;
29044;SDS011;16133;49.486;12.176;2022-12-29T01:43:19;9.65;;;4.35;;
29044;SDS011;16133;49.486;12.176;2022-12-29T01:45:48;6.18;;;4.28;;
29044;SDS011;16133;49.486;12.176;2022-12-29T01:48:16;6.88;;;4.25;;
29044;SDS011;16133;49.486;12.176;2022-12-29T01:50:49;9.23;;;4.43;;
29044;SDS011;16133;49.486;12.176;2022-12-29T01:53:21;6.40;;;3.92;;
29044;SDS011;16133;49.486;12.176;2022-12-29T01:55:53;8.77;;;4.75;;
29044;SDS011;16133;49.486;12.176;2022-12-29T01:58:22;7.10;;;4.25;;
29044;SDS011;16133;49.486;12.176;2022-12-29T02:00:52;10.27;;;4.82;;
29044;SDS011;16133;49.486;12.176;2022-12-29T02:03:17;9.30;;;5.10;;
29044;SDS011;16133;49.486;12.176;2022-12-29T02:05:48;8.20;;;5.28;;
29044;SDS011;16133;49.486;12.176;2022-12-29T02:10:47;8.38;;;4.90;;
29044;SDS011;16133;49.486;12.176;2022-12-29T02:13:16;9.88;;;4.68;;
29044;SDS011;16133;49.486;12.176;2022-12-29T02:29:52;8.68;;;4.93;;
29044;SDS011;16133;49.486;12.176;2022-12-29T02:37:36;12.02;;;4.35;;
29044;SDS011;16133;49.486;12.176;2022-12-29T02:40:27;6.53;;;4.07;;
29044;SDS011;16133;49.486;12.176;2022-12-29T02:48:21;7.55;;;4.10;;
29044;SDS011;16133;49.486;12.176;2022-12-29T02:53:43;6.95;;;3.85;;
29044;SDS011;16133;49.486;12.176;2022-12-29T02:56:28;9.23;;;3.92;;
29044;SDS011;16133;49.486;12.176;2022-12-29T02:58:53;5.45;;;3.50;;
29044;SDS011;16133;49.486;12.176;2022-12-29T03:04:46;4.68;;;3.20;;
29044;SDS011;16133;49.486;12.176;2022-12-29T03:08:03;7.20;;;4.25;;
29044;SDS011;16133;49.486;12.176;2022-12-29T03:16:21;7.45;;;3.40;;
29044;SDS011;16133;49.486;12.176;2022-12-29T03:24:17;4.57;;;2.97;;
29044;SDS011;16133;49.486;12.176;2022-12-29T03:26:47;5.35;;;3.08;;
29044;SDS011;16133;49.486;12.176;2022-12-29T03:29:15;5.93;;;3.10;;
29044;SDS011;16133;49.486;12.176;2022-12-29T03:31:42;5.88;;;3.42;;
29044;SDS011;16133;49.486;12.176;2022-12-29T03:34:08;7.00;;;3.78;;
29044;SDS011;16133;49.486;12.176;2022-12-29T03:39:58;6.00;;;3.45;;
29044;SDS011;16133;49.486;12.176;2022-12-29T03:42:25;6.63;;;3.53;;
29044;SDS011;16133;49.486;12.176;2022-12-29T03:44:54;6.88;;;3.20;;
29044;SDS011;16133;49.486;12.176;2022-12-29T03:47:21;6.50;;;3.25;;
29044;SDS011;16133;49.486;12.176;2022-12-29T03:49:48;7.05;;;3.33;;
29044;SDS011;16133;49.486;12.176;2022-12-29T03:52:14;5.25;;;3.15;;
29044;SDS011;16133;49.486;12.176;2022-12-29T03:54:39;6.00;;;3.55;;
29044;SDS011;16133;49.486;12.176;2022-12-29T03:57:08;6.95;;;3.47;;
29044;SDS011;16133;49.486;12.176;2022-12-29T03:59:35;6.30;;;3.97;;
29044;SDS011;16133;49.486;12.176;2022-12-29T04:02:00;6.68;;;4.13;;
29044;SDS011;16133;49.486;12.176;2022-12-29T04:04:25;8.30;;;3.58;;
29044;SDS011;16133;49.486;12.176;2022-12-29T04:06:51;8.65;;;4.43;;
29044;SDS011;16133;49.486;12.176;2022-12-29T04:09:16;6.57;;;3.17;;
29044;SDS011;16133;49.486;12.176;2022-12-29T04:11:41;6.90;;;3.88;;
29044;SDS011;16133;49.486;12.176;2022-12-29T04:14:07;6.03;;;3.10;;
29044;SDS011;16133;49.486;12.176;2022-12-29T04:16:32;4.78;;;2.90;;
29044;SDS011;16133;49.486;12.176;2022-12-29T04:19:00;6.38;;;3.55;;
29044;SDS011;16133;49.486;12.176;2022-12-29T04:21:26;4.97;;;3.78;;
29044;SDS011;16133;49.486;12.176;2022-12-29T04:23:51;6.07;;;3.10;;
29044;SDS011;16133;49.486;12.176;2022-12-29T04:26:17;5.28;;;3.17;;
29044;SDS011;16133;49.486;12.176;2022-12-29T04:28:42;6.85;;;3.05;;
29044;SDS011;16133;49.486;12.176;2022-12-29T04:31:07;5.32;;;2.90;;
29044;SDS011;16133;49.486;12.176;2022-12-29T04:33:33;6.82;;;3.47;;
29044;SDS011;16133;49.486;12.176;2022-12-29T04:35:58;6.32;;;3.45;;
29044;SDS011;16133;49.486;12.176;2022-12-29T04:38:24;6.30;;;3.13;;
29044;SDS011;16133;49.486;12.176;2022-12-29T04:40:49;6.93;;;3.47;;
29044;SDS011;16133;49.486;12.176;2022-12-29T04:43:15;4.63;;;2.90;;
29044;SDS011;16133;49.486;12.176;2022-12-29T04:45:48;4.85;;;2.95;;
29044;SDS011;16133;49.486;12.176;2022-12-29T04:48:13;6.38;;;3.28;;
29044;SDS011;16133;49.486;12.176;2022-12-29T04:50:39;7.32;;;3.47;;
29044;SDS011;16133;49.486;12.176;2022-12-29T04:53:05;6.13;;;3.65;;
29044;SDS011;16133;49.486;12.176;2022-12-29T04:55:31;5.70;;;3.20;;
29044;SDS011;16133;49.486;12.176;2022-12-29T04:57:56;6.32;;;3.20;;
29044;SDS011;16133;49.486;12.176;2022-12-29T05:00:22;5.35;;;3.28;;
29044;SDS011;16133;49.486;12.176;2022-12-29T05:02:47;5.22;;;3.30;;
29044;SDS011;16133;49.486;12.176;2022-12-29T05:05:13;8.07;;;3.28;;
29044;SDS011;16133;49.486;12.176;2022-12-29T05:07:38;6.07;;;3.47;;
29044;SDS011;16133;49.486;12.176;2022-12-29T05:10:04;5.07;;;3.08;;
29044;SDS011;16133;49.486;12.176;2022-12-29T05:12:31;6.00;;;3.00;;
29044;SDS011;16133;49.486;12.176;2022-12-29T05:14:57;5.15;;;3.08;;
29044;SDS011;16133;49.486;12.176;2022-12-29T05:17:22;7.22;;;3.60;;
29044;SDS011;16133;49.486;12.176;2022-12-29T05:19:47;5.57;;;3.05;;
29044;SDS011;16133;49.486;12.176;2022-12-29T05:22:13;6.43;;;3.33;;
29044;SDS011;16133;49.486;12.176;2022-12-29T05:24:39;5.93;;;3.53;;
29044;SDS011;16133;49.486;12.176;2022-12-29T05:27:04;5.60;;;2.90;;
29044;SDS011;16133;49.486;12.176;2022-12-29T05:29:30;6.70;;;3.85;;
29044;SDS011;16133;49.486;12.176;2022-12-29T05:31:55;4.15;;;2.88;;
29044;SDS011;16133;49.486;12.176;2022-12-29T05:34:20;5.47;;;3.17;;
29044;SDS011;16133;49.486;12.176;2022-12-29T05:36:46;4.97;;;3.65;;
29044;SDS011;16133;49.486;12.176;2022-12-29T05:39:11;6.68;;;3.67;;
29044;SDS011;16133;49.486;12.176;2022-12-29T05:41:36;7.05;;;3.42;;
29044;SDS011;16133;49.486;12.176;2022-12-29T05:44:02;5.70;;;3.30;;
29044;SDS011;16133;49.486;12.176;2022-12-29T05:46:27;8.45;;;3.40;;
29044;SDS011;16133;49.486;12.176;2022-12-29T05:48:53;5.45;;;2.65;;
29044;SDS011;16133;49.486;12.176;2022-12-29T05:51:18;7.60;;;3.17;;
29044;SDS011;16133;49.486;12.176;2022-12-29T05:53:43;5.30;;;3.05;;
29044;SDS011;16133;49.486;12.176;2022-12-29T05:56:09;4.07;;;2.47;;
29044;SDS011;16133;49.486;12.176;2022-12-29T05:58:34;5.43;;;2.95;;
29044;SDS011;16133;49.486;12.176;2022-12-29T06:00:59;4.60;;;2.40;;
29044;SDS011;16133;49.486;12.176;2022-12-29T06:03:25;5.90;;;3.25;;
29044;SDS011;16133;49.486;12.176;2022-12-29T06:05:51;4.32;;;2.70;;
29044;SDS011;16133;49.486;12.176;2022-12-29T06:08:16;4.78;;;2.85;;
29044;SDS011;16133;49.486;12.176;2022-12-29T06:10:41;6.25;;;3.20;;
29044;SDS011;16133;49.486;12.176;2022-12-29T06:13:07;4.00;;;2.65;;
29044;SDS011;16133;49.486;12.176;2022-12-29T06:15:33;6.53;;;2.95;;
29044;SDS011;16133;49.486;12.176;2022-12-29T06:17:59;4.78;;;2.53;;
29044;SDS011;16133;49.486;12.176;2022-12-29T06:20:24;4.20;;;2.88;;
29044;SDS011;16133;49.486;12.176;2022-12-29T06:22:49;6.95;;;3.10;;
29044;SDS011;16133;49.486;12.176;2022-12-29T06:25:15;5.22;;;2.90;;
29044;SDS011;16133;49.486;12.176;2022-12-29T06:27:41;4.22;;;2.95;;
29044;SDS011;16133;49.486;12.176;2022-12-29T06:30:06;4.60;;;2.65;;
29044;SDS011;16133;49.486;12.176;2022-12-29T06:32:32;4.25;;;2.22;;
29044;SDS011;16133;49.486;12.176;2022-12-29T06:34:58;5.35;;;2.92;;
29044;SDS011;16133;49.486;12.176;2022-12-29T06:37:24;6.80;;;2.42;;
29044;SDS011;16133;49.486;12.176;2022-12-29T06:39:49;5.78;;;2.60;;
29044;SDS011;16133;49.486;12.176;2022-12-29T06:42:15;5.63;;;3.22;;
29044;SDS011;16133;49.486;12.176;2022-12-29T06:44:40;8.43;;;3.17;;
29044;SDS011;16133;49.486;12.176;2022-12-29T06:47:05;4.18;;;2.72;;
29044;SDS011;16133;49.486;12.176;2022-12-29T06:49:31;5.13;;;3.30;;
29044;SDS011;16133;49.486;12.176;2022-12-29T06:51:56;5.00;;;2.75;;
29044;SDS011;16133;49.486;12.176;2022-12-29T06:54:23;4.80;;;2.75;;
29044;SDS011;16133;49.486;12.176;2022-12-29T06:56:48;4.32;;;2.50;;
29044;SDS011;16133;49.486;12.176;2022-12-29T06:59:14;4.13;;;2.72;;
29044;SDS011;16133;49.486;12.176;2022-12-29T07:01:39;3.30;;;2.33;;
29044;SDS011;16133;49.486;12.176;2022-12-29T07:04:04;4.10;;;2.50;;
29044;SDS011;16133;49.486;12.176;2022-12-29T07:06:30;5.72;;;2.40;;
29044;SDS011;16133;49.486;12.176;2022-12-29T07:08:55;5.72;;;3.15;;
29044;SDS011;16133;49.486;12.176;2022-12-29T07:11:22;6.32;;;3.10;;
29044;SDS011;16133;49.486;12.176;2022-12-29T07:13:48;26.88;;;9.15;;
29044;SDS011;16133;49.486;12.176;2022-12-29T07:16:13;51.53;;;16.40;;
29044;SDS011;16133;49.486;12.176;2022-12-29T07:18:39;13.10;;;5.78;;
29044;SDS011;16133;49.486;12.176;2022-12-29T07:21:04;5.95;;;3.15;;
29044;SDS011;16133;49.486;12.176;2022-12-29T07:23:30;8.32;;;4.63;;
29044;SDS011;16133;49.486;12.176;2022-12-29T07:26:02;13.70;;;5.53;;
29044;SDS011;16133;49.486;12.176;2022-12-29T07:28:29;23.05;;;8.60;;
29044;SDS011;16133;49.486;12.176;2022-12-29T07:30:55;26.13;;;9.68;;
29044;SDS011;16133;49.486;12.176;2022-12-29T07:33:20;20.08;;;6.22;;
29044;SDS011;16133;49.486;12.176;2022-12-29T07:35:46;12.38;;;5.35;;
29044;SDS011;16133;49.486;12.176;2022-12-29T07:38:11;17.33;;;7.30;;
29044;SDS011;16133;49.486;12.176;2022-12-29T07:40:37;14.52;;;5.55;;
29044;SDS011;16133;49.486;12.176;2022-12-29T07:43:02;10.57;;;3.60;;
29044;SDS011;16133;49.486;12.176;2022-12-29T07:45:29;4.88;;;2.83;;
29044;SDS011;16133;49.486;12.176;2022-12-29T07:47:54;4.65;;;2.60;;
29044;SDS011;16133;49.486;12.176;2022-12-29T07:50:20;5.55;;;3.03;;
29044;SDS011;16133;49.486;12.176;2022-12-29T07:52:45;6.75;;;2.92;;
29044;SDS011;16133;49.486;12.176;2022-12-29T07:55:12;5.80;;;3.03;;
29044;SDS011;16133;49.486;12.176;2022-12-29T07:57:38;7.70;;;3.65;;
29044;SDS011;16133;49.486;12.176;2022-12-29T08:00:04;9.10;;;3.15;;
29044;SDS011;16133;49.486;12.176;2022-12-29T08:02:29;5.47;;;2.75;;
29044;SDS011;16133;49.486;12.176;2022-12-29T08:04:55;6.18;;;2.80;;
29044;SDS011;16133;49.486;12.176;2022-12-29T08:07:20;8.98;;;3.15;;
29044;SDS011;16133;49.486;12.176;2022-12-29T08:09:46;5.95;;;3.00;;
29044;SDS011;16133;49.486;12.176;2022-12-29T08:12:11;5.70;;;2.97;;
29044;SDS011;16133;49.486;12.176;2022-12-29T08:14:36;6.25;;;2.58;;
29044;SDS011;16133;49.486;12.176;2022-12-29T08:17:02;4.82;;;2.47;;
29044;SDS011;16133;49.486;12.176;2022-12-29T08:19:27;8.25;;;3.15;;
29044;SDS011;16133;49.486;12.176;2022-12-29T08:21:53;6.72;;;3.45;;
29044;SDS011;16133;49.486;12.176;2022-12-29T08:24:18;4.53;;;2.60;;
29044;SDS011;16133;49.486;12.176;2022-12-29T08:26:44;5.10;;;2.38;;
29044;SDS011;16133;49.486;12.176;2022-12-29T08:29:09;6.20;;;3.15;;
29044;SDS011;16133;49.486;12.176;2022-12-29T08:31:34;7.50;;;3.95;;
29044;SDS011;16133;49.486;12.176;2022-12-29T08:34:00;6.18;;;2.60;;
29044;SDS011;16133;49.486;12.176;2022-12-29T08:36:26;4.90;;;2.95;;
29044;SDS011;16133;49.486;12.176;2022-12-29T08:38:51;4.63;;;2.40;;
29044;SDS011;16133;49.486;12.176;2022-12-29T08:41:17;6.93;;;3.20;;
29044;SDS011;16133;49.486;12.176;2022-12-29T08:43:45;5.45;;;2.90;;
29044;SDS011;16133;49.486;12.176;2022-12-29T08:46:11;5.18;;;2.90;;
29044;SDS011;16133;49.486;12.176;2022-12-29T08:48:37;7.13;;;2.75;;
29044;SDS011;16133;49.486;12.176;2022-12-29T08:51:02;4.30;;;2.58;;
29044;SDS011;16133;49.486;12.176;2022-12-29T08:53:27;7.15;;;2.88;;
29044;SDS011;16133;49.486;12.176;2022-12-29T08:55:58;4.22;;;2.83;;
29044;SDS011;16133;49.486;12.176;2022-12-29T08:58:25;7.55;;;3.10;;
29044;SDS011;16133;49.486;12.176;2022-12-29T09:00:52;5.82;;;2.97;;
29044;SDS011;16133;49.486;12.176;2022-12-29T09:03:18;6.65;;;3.25;;
29044;SDS011;16133;49.486;12.176;2022-12-29T09:05:47;3.95;;;2.70;;
29044;SDS011;16133;49.486;12.176;2022-12-29T09:08:14;5.78;;;2.78;;
29044;SDS011;16133;49.486;12.176;2022-12-29T09:10:39;7.35;;;2.63;;
29044;SDS011;16133;49.486;12.176;2022-12-29T09:13:04;7.90;;;3.13;;
29044;SDS011;16133;49.486;12.176;2022-12-29T09:15:30;4.57;;;2.80;;
29044;SDS011;16133;49.486;12.176;2022-12-29T09:17:55;7.45;;;3.20;;
29044;SDS011;16133;49.486;12.176;2022-12-29T09:20:21;5.88;;;2.92;;
29044;SDS011;16133;49.486;12.176;2022-12-29T09:22:46;6.25;;;3.00;;
29044;SDS011;16133;49.486;12.176;2022-12-29T09:25:13;5.32;;;2.97;;
29044;SDS011;16133;49.486;12.176;2022-12-29T09:27:39;5.55;;;2.63;;
29044;SDS011;16133;49.486;12.176;2022-12-29T09:30:06;6.43;;;3.13;;
29044;SDS011;16133;49.486;12.176;2022-12-29T09:32:34;4.60;;;3.00;;
29044;SDS011;16133;49.486;12.176;2022-12-29T09:35:00;5.53;;;2.53;;
29044;SDS011;16133;49.486;12.176;2022-12-29T09:37:25;5.93;;;3.50;;
29044;SDS011;16133;49.486;12.176;2022-12-29T09:39:51;8.40;;;3.53;;
29044;SDS011;16133;49.486;12.176;2022-12-29T09:42:19;5.60;;;3.00;;
29044;SDS011;16133;49.486;12.176;2022-12-29T09:47:36;8.02;;;3.80;;
29044;SDS011;16133;49.486;12.176;2022-12-29T09:50:20;5.25;;;3.10;;
29044;SDS011;16133;49.486;12.176;2022-12-29T09:55:42;5.00;;;2.85;;
29044;SDS011;16133;49.486;12.176;2022-12-29T10:01:05;5.07;;;2.58;;
29044;SDS011;16133;49.486;12.176;2022-12-29T10:03:45;6.20;;;2.67;;
29044;SDS011;16133;49.486;12.176;2022-12-29T10:06:15;5.20;;;3.05;;
29044;SDS011;16133;49.486;12.176;2022-12-29T10:11:48;3.95;;;2.70;;
29044;SDS011;16133;49.486;12.176;2022-12-29T10:22:18;5.07;;;2.80;;
29044;SDS011;16133;49.486;12.176;2022-12-29T10:24:52;6.95;;;3.15;;
29044;SDS011;16133;49.486;12.176;2022-12-29T10:27:20;5.85;;;3.00;;
29044;SDS011;16133;49.486;12.176;2022-12-29T10:29:48;5.75;;;2.45;;
29044;SDS011;16133;49.486;12.176;2022-12-29T10:32:35;6.40;;;2.75;;
29044;SDS011;16133;49.486;12.176;2022-12-29T10:35:10;5.07;;;2.53;;
29044;SDS011;16133;49.486;12.176;2022-12-29T10:40:29;5.20;;;2.90;;
29044;SDS011;16133;49.486;12.176;2022-12-29T10:43:01;5.93;;;3.03;;
29044;SDS011;16133;49.486;12.176;2022-12-29T10:45:38;5.65;;;2.85;;
29044;SDS011;16133;49.486;12.176;2022-12-29T10:50:33;5.47;;;2.70;;
29044;SDS011;16133;49.486;12.176;2022-12-29T10:53:00;4.68;;;3.10;;
29044;SDS011;16133;49.486;12.176;2022-12-29T10:55:29;4.10;;;2.55;;
29044;SDS011;16133;49.486;12.176;2022-12-29T10:57:59;5.25;;;2.97;;
29044;SDS011;16133;49.486;12.176;2022-12-29T11:00:29;3.97;;;2.50;;
29044;SDS011;16133;49.486;12.176;2022-12-29T11:08:24;5.97;;;3.38;;
29044;SDS011;16133;49.486;12.176;2022-12-29T11:11:02;5.25;;;3.33;;
29044;SDS011;16133;49.486;12.176;2022-12-29T11:13:34;7.45;;;3.53;;
29044;SDS011;16133;49.486;12.176;2022-12-29T11:16:11;13.38;;;7.10;;
29044;SDS011;16133;49.486;12.176;2022-12-29T11:18:38;14.73;;;7.93;;
29044;SDS011;16133;49.486;12.176;2022-12-29T11:21:50;15.50;;;6.85;;
29044;SDS011;16133;49.486;12.176;2022-12-29T11:26:27;36.63;;;21.50;;
29044;SDS011;16133;49.486;12.176;2022-12-29T11:31:57;9.13;;;6.45;;
29044;SDS011;16133;49.486;12.176;2022-12-29T11:34:33;6.60;;;3.97;;
29044;SDS011;16133;49.486;12.176;2022-12-29T11:37:09;9.85;;;3.58;;
29044;SDS011;16133;49.486;12.176;2022-12-29T11:39:51;6.25;;;2.95;;
29044;SDS011;16133;49.486;12.176;2022-12-29T11:42:33;6.13;;;2.88;;
29044;SDS011;16133;49.486;12.176;2022-12-29T11:45:06;6.55;;;3.33;;
29044;SDS011;16133;49.486;12.176;2022-12-29T11:47:42;4.60;;;2.80;;
29044;SDS011;16133;49.486;12.176;2022-12-29T11:50:15;9.20;;;3.47;;
29044;SDS011;16133;49.486;12.176;2022-12-29T11:52:43;6.30;;;3.60;;
29044;SDS011;16133;49.486;12.176;2022-12-29T11:55:16;7.38;;;3.33;;
29044;SDS011;16133;49.486;12.176;2022-12-29T11:57:46;5.80;;;2.92;;
29044;SDS011;16133;49.486;12.176;2022-12-29T12:00:16;6.25;;;2.70;;
29044;SDS011;16133;49.486;12.176;2022-12-29T12:05:23;5.95;;;3.17;;
29044;SDS011;16133;49.486;12.176;2022-12-29T12:08:04;6.53;;;2.97;;
29044;SDS011;16133;49.486;12.176;2022-12-29T12:13:34;6.20;;;2.90;;
29044;SDS011;16133;49.486;12.176;2022-12-29T12:18:49;8.23;;;3.03;;
29044;SDS011;16133;49.486;12.176;2022-12-29T12:21:25;6.32;;;2.65;;
29044;SDS011;16133;49.486;12.176;2022-12-29T12:24:04;5.35;;;2.40;;
29044;SDS011;16133;49.486;12.176;2022-12-29T12:26:35;4.22;;;2.30;;
29044;SDS011;16133;49.486;12.176;2022-12-29T12:29:11;4.25;;;2.60;;
29044;SDS011;16133;49.486;12.176;2022-12-29T12:34:27;5.20;;;2.80;;
29044;SDS011;16133;49.486;12.176;2022-12-29T12:39:31;4.78;;;2.15;;
29044;SDS011;16133;49.486;12.176;2022-12-29T13:06:53;7.13;;;3.17;;
29044;SDS011;16133;49.486;12.176;2022-12-29T13:12:08;6.47;;;3.97;;
29044;SDS011;16133;49.486;12.176;2022-12-29T13:17:42;8.90;;;4.78;;
29044;SDS011;16133;49.486;12.176;2022-12-29T13:23:01;13.80;;;6.95;;
29044;SDS011;16133;49.486;12.176;2022-12-29T13:26:00;12.02;;;5.30;;
29044;SDS011;16133;49.486;12.176;2022-12-29T13:28:45;7.53;;;4.10;;
29044;SDS011;16133;49.486;12.176;2022-12-29T13:31:36;10.43;;;4.95;;
29044;SDS011;16133;49.486;12.176;2022-12-29T13:37:03;5.05;;;3.03;;
29044;SDS011;16133;49.486;12.176;2022-12-29T13:39:35;7.28;;;2.90;;
29044;SDS011;16133;49.486;12.176;2022-12-29T13:42:04;4.50;;;2.97;;
29044;SDS011;16133;49.486;12.176;2022-12-29T13:50:20;9.82;;;5.18;;
29044;SDS011;16133;49.486;12.176;2022-12-29T13:52:54;7.32;;;4.18;;
29044;SDS011;16133;49.486;12.176;2022-12-29T13:55:45;7.40;;;4.20;;
29044;SDS011;16133;49.486;12.176;2022-12-29T14:01:01;7.70;;;3.65;;
29044;SDS011;16133;49.486;12.176;2022-12-29T14:03:47;6.35;;;3.10;;
29044;SDS011;16133;49.486;12.176;2022-12-29T14:08:43;6.30;;;3.25;;
29044;SDS011;16133;49.486;12.176;2022-12-29T14:11:09;7.07;;;3.30;;
29044;SDS011;16133;49.486;12.176;2022-12-29T14:13:37;11.95;;;4.75;;
29044;SDS011;16133;49.486;12.176;2022-12-29T14:16:04;9.93;;;4.45;;
29044;SDS011;16133;49.486;12.176;2022-12-29T14:18:31;9.07;;;5.20;;
29044;SDS011;16133;49.486;12.176;2022-12-29T14:21:41;7.15;;;4.63;;
29044;SDS011;16133;49.486;12.176;2022-12-29T14:23:53;6.57;;;3.80;;
29044;SDS011;16133;49.486;12.176;2022-12-29T14:28:53;8.35;;;3.30;;
29044;SDS011;16133;49.486;12.176;2022-12-29T14:39:03;20.75;;;8.93;;
29044;SDS011;16133;49.486;12.176;2022-12-29T14:41:33;16.58;;;7.97;;
29044;SDS011;16133;49.486;12.176;2022-12-29T14:46:42;11.00;;;6.18;;
29044;SDS011;16133;49.486;12.176;2022-12-29T14:49:12;8.65;;;5.00;;
29044;SDS011;16133;49.486;12.176;2022-12-29T14:51:42;8.30;;;4.68;;
29044;SDS011;16133;49.486;12.176;2022-12-29T14:57:00;10.40;;;4.45;;
29044;SDS011;16133;49.486;12.176;2022-12-29T14:59:29;11.50;;;5.38;;
29044;SDS011;16133;49.486;12.176;2022-12-29T15:01:56;11.13;;;4.93;;
29044;SDS011;16133;49.486;12.176;2022-12-29T15:04:30;7.40;;;4.60;;
29044;SDS011;16133;49.486;12.176;2022-12-29T15:06:57;8.57;;;4.20;;
29044;SDS011;16133;49.486;12.176;2022-12-29T15:09:26;7.93;;;4.53;;
29044;SDS011;16133;49.486;12.176;2022-12-29T15:12:06;9.00;;;3.80;;
29044;SDS011;16133;49.486;12.176;2022-12-29T15:14:38;5.53;;;3.10;;
29044;SDS011;16133;49.486;12.176;2022-12-29T15:19:55;5.75;;;2.80;;
29044;SDS011;16133;49.486;12.176;2022-12-29T15:22:21;5.65;;;2.90;;
29044;SDS011;16133;49.486;12.176;2022-12-29T15:24:48;10.13;;;3.85;;
29044;SDS011;16133;49.486;12.176;2022-12-29T15:27:19;5.55;;;3.03;;
29044;SDS011;16133;49.486;12.176;2022-12-29T15:29:58;7.18;;;3.50;;
29044;SDS011;16133;49.486;12.176;2022-12-29T15:32:27;8.15;;;4.40;;
29044;SDS011;16133;49.486;12.176;2022-12-29T15:34:55;9.32;;;4.63;;
29044;SDS011;16133;49.486;12.176;2022-12-29T15:37:32;10.05;;;4.72;;
29044;SDS011;16133;49.486;12.176;2022-12-29T15:40:00;8.73;;;5.13;;
29044;SDS011;16133;49.486;12.176;2022-12-29T15:44:51;13.20;;;5.22;;
29044;SDS011;16133;49.486;12.176;2022-12-29T15:47:24;11.07;;;5.45;;
29044;SDS011;16133;49.486;12.176;2022-12-29T15:49:53;10.27;;;5.13;;
29044;SDS011;16133;49.486;12.176;2022-12-29T15:52:28;12.13;;;4.65;;
29044;SDS011;16133;49.486;12.176;2022-12-29T15:54:55;8.48;;;3.90;;
29044;SDS011;16133;49.486;12.176;2022-12-29T15:57:27;11.27;;;5.63;;
29044;SDS011;16133;49.486;12.176;2022-12-29T15:59:55;9.35;;;5.43;;
29044;SDS011;16133;49.486;12.176;2022-12-29T16:02:22;9.43;;;5.35;;
29044;SDS011;16133;49.486;12.176;2022-12-29T16:04:48;12.00;;;6.10;;
29044;SDS011;16133;49.486;12.176;2022-12-29T16:07:26;12.60;;;6.60;;
29044;SDS011;16133;49.486;12.176;2022-12-29T16:09:58;14.95;;;6.78;;
29044;SDS011;16133;49.486;12.176;2022-12-29T16:12:28;12.75;;;6.50;;
29044;SDS011;16133;49.486;12.176;2022-12-29T16:14:57;11.75;;;6.53;;
29044;SDS011;16133;49.486;12.176;2022-12-29T16:17:29;10.90;;;5.43;;
29044;SDS011;16133;49.486;12.176;2022-12-29T16:20:00;11.07;;;5.10;;
29044;SDS011;16133;49.486;12.176;2022-12-29T16:23:01;11.85;;;5.40;;
29044;SDS011;16133;49.486;12.176;2022-12-29T16:25:31;9.27;;;5.65;;
29044;SDS011;16133;49.486;12.176;2022-12-29T16:27:59;14.00;;;6.17;;
29044;SDS011;16133;49.486;12.176;2022-12-29T16:30:27;10.18;;;5.15;;
29044;SDS011;16133;49.486;12.176;2022-12-29T16:33:02;9.48;;;5.30;;
29044;SDS011;16133;49.486;12.176;2022-12-29T16:35:35;11.68;;;4.68;;
29044;SDS011;16133;49.486;12.176;2022-12-29T16:43:23;11.48;;;5.20;;
29044;SDS011;16133;49.486;12.176;2022-12-29T16:50:48;13.25;;;5.80;;
29044;SDS011;16133;49.486;12.176;2022-12-29T16:55:51;8.40;;;4.25;;
29044;SDS011;16133;49.486;12.176;2022-12-29T16:58:20;10.35;;;4.80;;
29044;SDS011;16133;49.486;12.176;2022-12-29T17:00:47;9.88;;;5.45;;
29044;SDS011;16133;49.486;12.176;2022-12-29T17:03:13;10.88;;;5.28;;
29044;SDS011;16133;49.486;12.176;2022-12-29T17:05:40;10.98;;;6.07;;
29044;SDS011;16133;49.486;12.176;2022-12-29T17:08:18;11.48;;;6.35;;
29044;SDS011;16133;49.486;12.176;2022-12-29T17:10:51;18.40;;;7.55;;
29044;SDS011;16133;49.486;12.176;2022-12-29T17:13:37;14.75;;;7.38;;
29044;SDS011;16133;49.486;12.176;2022-12-29T17:16:04;14.88;;;8.48;;
29044;SDS011;16133;49.486;12.176;2022-12-29T17:18:32;15.80;;;8.77;;
29044;SDS011;16133;49.486;12.176;2022-12-29T17:20:58;17.52;;;8.10;;
29044;SDS011;16133;49.486;12.176;2022-12-29T17:23:24;13.38;;;7.72;;
29044;SDS011;16133;49.486;12.176;2022-12-29T17:25:50;12.20;;;7.20;;
29044;SDS011;16133;49.486;12.176;2022-12-29T17:30:46;11.50;;;6.82;;
29044;SDS011;16133;49.486;12.176;2022-12-29T17:33:13;15.50;;;7.47;;
29044;SDS011;16133;49.486;12.176;2022-12-29T17:35:43;14.45;;;8.10;;
29044;SDS011;16133;49.486;12.176;2022-12-29T17:38:16;12.90;;;7.07;;
29044;SDS011;16133;49.486;12.176;2022-12-29T17:40:43;11.00;;;6.32;;
29044;SDS011;16133;49.486;12.176;2022-12-29T17:43:10;15.82;;;7.15;;
29044;SDS011;16133;49.486;12.176;2022-12-29T17:45:38;12.52;;;6.20;;
29044;SDS011;16133;49.486;12.176;2022-12-29T17:48:10;9.77;;;5.78;;